Main page
METAR-TAF:

METAR-TAF

Airports :

Hawarden, Wales

Hawarden Airport

latitude: 53-10N, longitude: 002-59W, elevation: 10 m

Current weather observation

The report was made 15 minutes ago, at 13:20 UTC
Wind 18 kt from the West/Northwest with gusts up to 29 kt, varying between West/Southwest and North/Northwest
Temperature 13°C
Humidity 58%
Pressure 1013 hPa
Visibility 10 km or more
Scattered clouds at a height of 2200 ft
Scattered clouds at a height of 4000 ft

METAR: EGNR 221320Z 30018G29KT 250V330 9999 SCT022 SCT040 13/05 Q1013

Time: 14:35 (13:35 UTC)

Forecast

The report was made 2 hours and 38 minutes ago, at 10:57 UTC
Forecast valid from 22 at 12 UTC to 22 at 18 UTC
Wind 16 kt from the West
Visibility 10 km or more
Scattered clouds at a height of 2500 ft
Probability 40% :
Temporary
from 22 at 12 UTC to 22 at 15 UTC
Wind 19 kt from the West/Northwest with gusts up to 29 kt
Visibility: 7000 m
rain showers

TAF: EGNR 221057Z 2212/2218 28016KT 9999 SCT025 PROB40 TEMPO 2212/2215 29019G29KT 7000 SHRA

Weather observations and forecasts of more than 4000 airports (METAR and TAF reports).

The available stations are represented by yellow and red dots on the map.

Hover mouse over dot to see the name of the station.

Then click to see weather observations and forecasts.

To change the map : click on the green buttons with a black cross to zoom in, on the green button with a dash to zoom out, or on the green arrows for adjacent maps.


METAR-TAF: